createdAt,value
2023-03-22T00:01:31.088Z,100.00
2023-03-22T00:03:59.785Z,100.00
2023-03-22T00:06:28.241Z,100.00
2023-03-22T00:08:56.531Z,100.00
2023-03-22T00:11:26.518Z,100.00
2023-03-22T00:13:55.119Z,100.00
2023-03-22T00:16:23.592Z,100.00
2023-03-22T00:18:51.886Z,100.00
2023-03-22T00:21:20.222Z,100.00
2023-03-22T00:23:48.607Z,100.00
2023-03-22T00:26:16.756Z,100.00
2023-03-22T00:28:46.559Z,100.00
2023-03-22T00:31:15.862Z,100.00
2023-03-22T00:33:44.259Z,100.00
2023-03-22T00:36:13.366Z,100.00
2023-03-22T00:38:43.459Z,100.00
2023-03-22T00:41:15.990Z,100.00
2023-03-22T00:43:48.335Z,100.00
2023-03-22T00:46:17.897Z,100.00
2023-03-22T00:48:46.442Z,100.00
2023-03-22T00:51:15.878Z,100.00
2023-03-22T00:53:44.849Z,100.00
2023-03-22T00:56:15.810Z,100.00
2023-03-22T00:59:08.474Z,100.00
2023-03-22T01:01:36.731Z,100.00
2023-03-22T01:04:05.539Z,100.00
2023-03-22T01:06:33.930Z,100.00
2023-03-22T01:09:02.582Z,100.00
2023-03-22T01:11:30.787Z,100.00
2023-03-22T01:13:59.600Z,100.00
2023-03-22T01:16:29.104Z,100.00
2023-03-22T01:18:57.380Z,100.00
2023-03-22T01:21:25.840Z,100.00
2023-03-22T01:23:54.363Z,100.00
2023-03-22T01:26:22.546Z,100.00
2023-03-22T01:28:51.249Z,100.00
2023-03-22T01:31:19.425Z,100.00
2023-03-22T01:33:49.275Z,100.00
2023-03-22T01:36:17.407Z,100.00
2023-03-22T01:38:45.900Z,100.00
2023-03-22T01:41:14.215Z,100.00
2023-03-22T01:43:43.852Z,100.00
2023-03-22T01:46:12.977Z,100.00
2023-03-22T01:48:46.105Z,100.00
2023-03-22T01:51:19.798Z,100.00
2023-03-22T01:54:22.843Z,100.00
2023-03-22T01:56:51.786Z,100.00
2023-03-22T01:59:30.607Z,100.00
2023-03-22T02:02:22.119Z,100.00
2023-03-22T02:04:58.898Z,100.00
2023-03-22T02:07:31.811Z,100.00
2023-03-22T02:10:01.701Z,100.00
2023-03-22T02:12:52.556Z,100.00
2023-03-22T02:15:42.919Z,100.00
2023-03-22T02:18:51.938Z,100.00
2023-03-22T02:21:39.780Z,100.00
2023-03-22T02:24:46.071Z,100.00
2023-03-22T02:27:26.713Z,100.00
2023-03-22T02:30:07.072Z,100.00
2023-03-22T02:33:07.327Z,100.00
2023-03-22T02:35:50.451Z,100.00
2023-03-22T02:38:58.977Z,100.00
2023-03-22T02:41:37.346Z,100.00
2023-03-22T02:44:11.137Z,100.00
2023-03-22T02:46:45.976Z,100.00
2023-03-22T02:49:21.039Z,100.00
2023-03-22T02:51:54.674Z,100.00
2023-03-22T02:54:29.996Z,100.00
2023-03-22T02:57:03.589Z,100.00
2023-03-22T02:59:34.728Z,100.00
2023-03-22T03:02:04.645Z,100.00
2023-03-22T03:04:37.438Z,100.00
2023-03-22T03:07:10.323Z,100.00
2023-03-22T03:09:42.294Z,100.00
2023-03-22T03:12:15.996Z,100.00
2023-03-22T03:14:44.260Z,100.00
2023-03-22T03:17:24.254Z,100.00
2023-03-22T03:20:07.955Z,100.00
2023-03-22T03:22:47.564Z,100.00
2023-03-22T03:25:26.576Z,100.00
2023-03-22T03:28:03.529Z,100.00
2023-03-22T03:30:38.982Z,100.00
2023-03-22T03:33:10.603Z,100.00
2023-03-22T03:35:45.388Z,100.00
2023-03-22T03:38:17.478Z,100.00
2023-03-22T03:40:51.545Z,100.00
2023-03-22T03:43:20.671Z,100.00
2023-03-22T03:45:49.006Z,100.00
2023-03-22T03:48:22.469Z,100.00
2023-03-22T03:50:53.948Z,100.00
2023-03-22T03:53:22.381Z,100.00
2023-03-22T03:55:51.875Z,100.00
2023-03-22T03:58:20.161Z,100.00
2023-03-22T04:00:50.217Z,100.00
2023-03-22T04:03:37.791Z,100.00
2023-03-22T04:06:25.888Z,100.00
2023-03-22T04:08:58.601Z,100.00
2023-03-22T04:11:33.700Z,100.00
2023-03-22T04:14:04.260Z,100.00
2023-03-22T04:16:32.637Z,100.00
2023-03-22T04:19:00.880Z,100.00
2023-03-22T04:21:29.202Z,100.00
2023-03-22T04:23:59.633Z,100.00
2023-03-22T04:26:30.871Z,100.00
2023-03-22T04:29:24.693Z,100.00
2023-03-22T04:31:58.716Z,100.00
2023-03-22T04:34:36.817Z,100.00
2023-03-22T04:37:08.089Z,100.00
2023-03-22T04:39:39.394Z,100.00
2023-03-22T04:42:34.087Z,100.00
2023-03-22T04:45:15.500Z,100.00
2023-03-22T04:47:47.462Z,100.00
2023-03-22T04:50:15.763Z,100.00
2023-03-22T04:52:58.456Z,100.00
2023-03-22T04:55:27.685Z,100.00
2023-03-22T04:57:55.980Z,100.00
2023-03-22T05:00:30.062Z,100.00
2023-03-22T05:02:59.362Z,100.00
2023-03-22T05:05:34.372Z,100.00
2023-03-22T05:08:04.328Z,100.00
2023-03-22T05:10:32.493Z,100.00
2023-03-22T05:13:00.636Z,100.00
2023-03-22T05:15:34.598Z,100.00
2023-03-22T05:18:05.149Z,100.00
2023-03-22T05:20:33.521Z,100.00
2023-03-22T05:23:11.603Z,100.00
2023-03-22T05:25:45.065Z,100.00
2023-03-22T05:28:15.415Z,100.00
2023-03-22T05:30:49.389Z,100.00
2023-03-22T05:33:28.056Z,100.00
2023-03-22T05:35:58.157Z,100.00
2023-03-22T05:38:28.675Z,100.00
2023-03-22T05:40:59.945Z,100.00
2023-03-22T05:43:29.485Z,100.00
2023-03-22T05:45:58.957Z,100.00
2023-03-22T05:48:40.573Z,100.00
2023-03-22T05:51:13.450Z,100.00
2023-03-22T05:53:41.757Z,100.00
2023-03-22T05:56:21.833Z,100.00
2023-03-22T05:58:50.861Z,100.00
2023-03-22T06:01:23.161Z,100.00
2023-03-22T06:04:10.749Z,100.00
2023-03-22T06:06:51.429Z,100.00
2023-03-22T06:09:50.188Z,100.00
2023-03-22T06:12:24.814Z,100.00
2023-03-22T06:15:14.092Z,100.00
2023-03-22T06:18:01.866Z,100.00
2023-03-22T06:20:35.253Z,100.00
2023-03-22T06:23:09.620Z,100.00
2023-03-22T06:25:39.909Z,100.00
2023-03-22T06:28:08.837Z,100.00
2023-03-22T06:30:38.590Z,100.00
2023-03-22T06:33:46.524Z,100.00
2023-03-22T06:36:24.643Z,100.00
2023-03-22T06:39:05.248Z,100.00
2023-03-22T06:41:33.926Z,100.00
2023-03-22T06:44:02.682Z,100.00
2023-03-22T06:46:56.666Z,100.00
2023-03-22T06:50:01.452Z,100.00
2023-03-22T06:52:49.620Z,100.00
2023-03-22T06:55:17.881Z,100.00
2023-03-22T06:57:46.047Z,100.00
2023-03-22T07:00:15.982Z,100.00
2023-03-22T07:02:44.154Z,100.00
2023-03-22T07:05:28.901Z,100.00
2023-03-22T07:07:57.091Z,100.00
2023-03-22T07:10:27.094Z,100.00
2023-03-22T07:12:55.365Z,100.00
2023-03-22T07:15:24.784Z,100.00
2023-03-22T07:18:00.698Z,100.00
2023-03-22T07:20:30.325Z,100.00
2023-03-22T07:22:58.603Z,100.00
2023-03-22T07:25:29.855Z,100.00
2023-03-22T07:28:11.418Z,100.00
2023-03-22T07:30:40.693Z,100.00
2023-03-22T07:33:11.498Z,100.00
2023-03-22T07:35:42.208Z,100.00
2023-03-22T07:38:11.466Z,100.00
2023-03-22T07:40:39.823Z,100.00
2023-03-22T07:43:12.019Z,100.00
2023-03-22T07:45:58.044Z,100.00
2023-03-22T07:48:49.074Z,100.00
2023-03-22T07:51:56.533Z,100.00
2023-03-22T07:54:33.467Z,100.00
2023-03-22T07:57:03.392Z,100.00
2023-03-22T07:59:33.740Z,100.00
2023-03-22T08:02:02.688Z,100.00
2023-03-22T08:04:36.514Z,100.00
2023-03-22T08:07:13.811Z,100.00
2023-03-22T08:09:42.877Z,100.00
2023-03-22T08:12:12.132Z,100.00
2023-03-22T08:14:41.286Z,100.00
2023-03-22T08:17:16.437Z,100.00
2023-03-22T08:19:45.306Z,100.00
2023-03-22T08:22:18.867Z,100.00
2023-03-22T08:25:14.202Z,100.00
2023-03-22T08:27:42.444Z,100.00
2023-03-22T08:30:11.837Z,100.00
2023-03-22T08:32:39.974Z,100.00
2023-03-22T08:35:09.396Z,100.00
2023-03-22T08:37:40.044Z,100.00
2023-03-22T08:40:10.338Z,100.00
2023-03-22T08:42:42.950Z,100.00
2023-03-22T08:45:11.551Z,100.00
2023-03-22T08:47:49.888Z,100.00
2023-03-22T08:50:24.324Z,100.00
2023-03-22T08:53:02.711Z,100.00
2023-03-22T08:55:35.384Z,100.00
2023-03-22T08:58:13.171Z,100.00
2023-03-22T09:00:55.799Z,100.00
2023-03-22T09:03:41.467Z,100.00
2023-03-22T09:06:11.061Z,100.00
2023-03-22T09:08:42.686Z,100.00
2023-03-22T09:11:16.647Z,99.92
2023-03-22T09:13:46.924Z,98.38
2023-03-22T09:16:15.196Z,97.06
2023-03-22T09:18:45.830Z,96.69
2023-03-22T09:21:17.912Z,95.42
2023-03-22T09:23:53.412Z,94.22
2023-03-22T09:26:27.185Z,93.36
2023-03-22T09:28:56.256Z,92.58
2023-03-22T09:31:24.942Z,92.85
2023-03-22T09:34:04.521Z,91.90
2023-03-22T09:36:34.303Z,92.24
2023-03-22T09:39:07.239Z,92.29
2023-03-22T09:41:39.772Z,93.42
2023-03-22T09:44:13.443Z,93.08
2023-03-22T09:46:45.662Z,93.02
2023-03-22T09:49:18.906Z,92.49
2023-03-22T09:51:49.666Z,92.77
2023-03-22T09:54:21.731Z,92.34
2023-03-22T09:56:54.012Z,91.19
2023-03-22T09:59:27.124Z,90.70
2023-03-22T10:02:00.055Z,90.77
2023-03-22T10:04:47.881Z,92.02
2023-03-22T10:07:27.354Z,90.89
2023-03-22T10:10:07.985Z,89.54
2023-03-22T10:12:43.736Z,89.54
2023-03-22T10:15:15.053Z,89.41
2023-03-22T10:17:47.226Z,88.78
2023-03-22T10:20:29.006Z,89.14
2023-03-22T10:23:01.469Z,89.38
2023-03-22T10:25:36.473Z,88.59
2023-03-22T10:28:15.405Z,86.82
2023-03-22T10:30:45.236Z,86.44
2023-03-22T10:33:17.822Z,85.85
2023-03-22T10:35:46.827Z,86.78
2023-03-22T10:38:20.654Z,86.19
2023-03-22T10:40:51.207Z,86.08
2023-03-22T10:43:23.778Z,85.04
2023-03-22T10:45:54.174Z,84.10
2023-03-22T10:48:28.693Z,84.61
2023-03-22T10:50:59.452Z,83.89
2023-03-22T10:53:35.934Z,84.55
2023-03-22T10:56:06.910Z,82.80
2023-03-22T10:58:36.258Z,81.96
2023-03-22T11:01:08.293Z,81.83
2023-03-22T11:03:41.577Z,81.74
2023-03-22T11:06:13.273Z,81.81
2023-03-22T11:08:45.074Z,81.57
2023-03-22T11:11:21.059Z,81.69
2023-03-22T11:14:01.030Z,81.56
2023-03-22T11:16:30.520Z,79.69
2023-03-22T11:19:02.060Z,79.23
2023-03-22T11:21:32.744Z,78.78
2023-03-22T11:24:04.767Z,78.48
2023-03-22T11:26:38.996Z,79.34
2023-03-22T11:29:14.972Z,78.73
2023-03-22T11:31:58.154Z,77.82
2023-03-22T11:34:29.396Z,76.49
2023-03-22T11:37:01.227Z,75.21
2023-03-22T11:39:30.621Z,75.26
2023-03-22T11:42:03.793Z,74.85
2023-03-22T11:44:35.532Z,74.41
2023-03-22T11:47:05.327Z,73.40
2023-03-22T11:49:41.143Z,73.03
2023-03-22T11:52:12.640Z,71.68
2023-03-22T11:54:42.748Z,71.10
2023-03-22T11:57:16.821Z,70.52
2023-03-22T11:59:53.806Z,71.06
2023-03-22T12:02:27.871Z,71.77
2023-03-22T12:05:01.797Z,70.15
2023-03-22T12:07:32.598Z,70.73
2023-03-22T12:10:06.426Z,71.23
2023-03-22T12:12:41.213Z,71.85
2023-03-22T12:15:16.422Z,69.79
2023-03-22T12:17:50.152Z,67.42
2023-03-22T12:20:26.393Z,66.69
2023-03-22T12:22:56.216Z,65.74
2023-03-22T12:25:28.362Z,65.04
2023-03-22T12:28:03.594Z,64.58
2023-03-22T12:30:34.911Z,64.91
2023-03-22T12:33:07.644Z,64.31
2023-03-22T12:35:39.984Z,64.65
2023-03-22T12:38:19.017Z,64.86
2023-03-22T12:40:48.694Z,65.17
2023-03-22T12:43:28.854Z,65.06
2023-03-22T12:46:01.011Z,65.89
2023-03-22T12:48:37.333Z,66.35
2023-03-22T12:51:07.717Z,66.07
2023-03-22T12:53:42.908Z,66.08
2023-03-22T12:56:14.236Z,66.18
2023-03-22T12:58:48.012Z,65.97
2023-03-22T13:01:30.068Z,65.49
2023-03-22T13:03:59.462Z,64.74
2023-03-22T13:06:34.131Z,65.39
2023-03-22T13:09:15.705Z,64.45
2023-03-22T13:11:45.890Z,63.86
2023-03-22T13:14:57.713Z,63.53
2023-03-22T13:17:41.862Z,61.88
2023-03-22T13:20:27.801Z,61.13
2023-03-22T13:23:02.184Z,61.43
2023-03-22T13:25:34.881Z,62.04
2023-03-22T13:28:05.175Z,60.93
2023-03-22T13:30:36.884Z,59.93
2023-03-22T13:33:21.248Z,60.39
2023-03-22T13:35:53.933Z,59.20
2023-03-22T13:38:24.746Z,58.77
2023-03-22T13:41:00.667Z,59.48
2023-03-22T13:43:32.789Z,60.73
2023-03-22T13:46:11.295Z,61.11
2023-03-22T13:48:59.595Z,60.44
2023-03-22T13:51:32.019Z,60.33
2023-03-22T13:54:05.507Z,60.04
2023-03-22T13:56:47.899Z,58.98
2023-03-22T13:59:21.328Z,59.83
2023-03-22T14:01:52.477Z,59.65
2023-03-22T14:04:26.644Z,59.14
2023-03-22T14:06:59.911Z,59.05
2023-03-22T14:09:32.345Z,60.37
2023-03-22T14:12:06.559Z,60.93
2023-03-22T14:14:40.881Z,60.48
2023-03-22T14:17:18.820Z,59.42
2023-03-22T14:19:49.782Z,59.27
